sensor_id;sensor_type;location;lat;lon;timestamp;pressure;altitude;pressure_sealevel;temperature;humidity
6343;BME280;3204;42.698;23.298;2024-03-23T00:56:08;94953.56;;;6.99;60.69
6343;BME280;3204;42.698;23.298;2024-03-23T00:58:33;94955.50;;;6.94;60.99
6343;BME280;3204;42.698;23.298;2024-03-23T01:00:58;94952.25;;;6.97;60.93
6343;BME280;3204;42.698;23.298;2024-03-23T01:03:24;94943.25;;;6.83;60.99
6343;BME280;3204;42.698;23.298;2024-03-23T01:05:49;94946.22;;;6.81;61.18
6343;BME280;3204;42.698;23.298;2024-03-23T01:08:14;94940.03;;;6.81;61.60
6343;BME280;3204;42.698;23.298;2024-03-23T01:10:40;94941.59;;;6.87;61.51
6343;BME280;3204;42.698;23.298;2024-03-23T01:13:05;94935.28;;;6.96;61.26
6343;BME280;3204;42.698;23.298;2024-03-23T01:15:31;94945.00;;;6.92;60.98
6343;BME280;3204;42.698;23.298;2024-03-23T01:17:57;94941.00;;;6.90;61.39
6343;BME280;3204;42.698;23.298;2024-03-23T01:20:22;94943.06;;;6.98;61.12
6343;BME280;3204;42.698;23.298;2024-03-23T01:22:48;94947.59;;;6.79;60.86
6343;BME280;3204;42.698;23.298;2024-03-23T01:25:13;94952.44;;;6.82;60.43
6343;BME280;3204;42.698;23.298;2024-03-23T01:27:39;94953.59;;;6.71;60.92
6343;BME280;3204;42.698;23.298;2024-03-23T01:30:04;94952.19;;;6.78;61.33
6343;BME280;3204;42.698;23.298;2024-03-23T01:32:30;94954.91;;;6.73;61.33
6343;BME280;3204;42.698;23.298;2024-03-23T01:34:55;94958.75;;;6.67;61.29
6343;BME280;3204;42.698;23.298;2024-03-23T01:37:20;94955.06;;;6.58;61.84
6343;BME280;3204;42.698;23.298;2024-03-23T01:39:46;94945.47;;;6.47;61.97
6343;BME280;3204;42.698;23.298;2024-03-23T01:42:12;94942.78;;;6.47;61.97
6343;BME280;3204;42.698;23.298;2024-03-23T01:44:37;94945.66;;;6.56;61.33
6343;BME280;3204;42.698;23.298;2024-03-23T01:47:03;94945.25;;;6.44;61.07
6343;BME280;3204;42.698;23.298;2024-03-23T01:49:28;94955.47;;;6.42;61.65
6343;BME280;3204;42.698;23.298;2024-03-23T01:51:54;94943.88;;;6.46;61.54
6343;BME280;3204;42.698;23.298;2024-03-23T01:54:19;94945.56;;;6.37;61.63
6343;BME280;3204;42.698;23.298;2024-03-23T01:56:45;94945.34;;;6.34;61.73
6343;BME280;3204;42.698;23.298;2024-03-23T01:59:10;94946.75;;;6.26;62.06
6343;BME280;3204;42.698;23.298;2024-03-23T02:01:36;94939.28;;;6.47;61.89
6343;BME280;3204;42.698;23.298;2024-03-23T02:04:01;94943.38;;;6.39;61.99
6343;BME280;3204;42.698;23.298;2024-03-23T02:06:27;94951.19;;;6.41;62.43
6343;BME280;3204;42.698;23.298;2024-03-23T02:08:54;94945.75;;;6.46;61.89
6343;BME280;3204;42.698;23.298;2024-03-23T02:11:19;94957.97;;;6.33;62.29
6343;BME280;3204;42.698;23.298;2024-03-23T02:13:45;94951.81;;;6.28;62.19
6343;BME280;3204;42.698;23.298;2024-03-23T02:16:10;94945.44;;;6.19;62.46
6343;BME280;3204;42.698;23.298;2024-03-23T02:18:36;94961.03;;;6.22;62.08
6343;BME280;3204;42.698;23.298;2024-03-23T02:21:02;94955.94;;;6.20;62.72
6343;BME280;3204;42.698;23.298;2024-03-23T02:23:27;94960.50;;;6.25;61.86
6343;BME280;3204;42.698;23.298;2024-03-23T02:25:53;94955.69;;;6.17;62.41
6343;BME280;3204;42.698;23.298;2024-03-23T02:28:19;94960.81;;;6.18;62.15
6343;BME280;3204;42.698;23.298;2024-03-23T02:30:44;94961.25;;;5.92;63.16
6343;BME280;3204;42.698;23.298;2024-03-23T02:33:10;94964.41;;;6.04;62.95
6343;BME280;3204;42.698;23.298;2024-03-23T02:35:35;94959.28;;;6.02;63.02
6343;BME280;3204;42.698;23.298;2024-03-23T02:38:00;94959.63;;;5.96;63.30
6343;BME280;3204;42.698;23.298;2024-03-23T02:40:28;94954.44;;;6.04;63.13
6343;BME280;3204;42.698;23.298;2024-03-23T02:42:54;94950.59;;;6.15;62.42
6343;BME280;3204;42.698;23.298;2024-03-23T02:45:19;94957.25;;;6.23;62.36
6343;BME280;3204;42.698;23.298;2024-03-23T02:47:45;94955.25;;;6.05;62.82
6343;BME280;3204;42.698;23.298;2024-03-23T02:50:10;94952.53;;;6.10;63.22
6343;BME280;3204;42.698;23.298;2024-03-23T02:52:36;94950.91;;;6.09;62.98
6343;BME280;3204;42.698;23.298;2024-03-23T02:55:02;94955.81;;;6.02;63.18
6343;BME280;3204;42.698;23.298;2024-03-23T02:57:28;94948.53;;;6.02;63.13
6343;BME280;3204;42.698;23.298;2024-03-23T02:59:54;94946.09;;;6.06;62.76
6343;BME280;3204;42.698;23.298;2024-03-23T03:02:20;94950.66;;;6.05;63.43
6343;BME280;3204;42.698;23.298;2024-03-23T03:04:46;94947.66;;;6.12;62.75
6343;BME280;3204;42.698;23.298;2024-03-23T03:07:11;94948.97;;;6.14;62.85
6343;BME280;3204;42.698;23.298;2024-03-23T03:09:36;94942.00;;;6.13;62.99
6343;BME280;3204;42.698;23.298;2024-03-23T03:12:05;94945.09;;;5.97;63.47
6343;BME280;3204;42.698;23.298;2024-03-23T03:14:30;94943.69;;;6.04;63.24
6343;BME280;3204;42.698;23.298;2024-03-23T03:16:56;94948.88;;;5.96;63.43
6343;BME280;3204;42.698;23.298;2024-03-23T03:19:21;94947.69;;;6.07;63.19
6343;BME280;3204;42.698;23.298;2024-03-23T03:21:47;94945.03;;;6.02;62.66
6343;BME280;3204;42.698;23.298;2024-03-23T03:24:13;94952.56;;;6.00;63.43
6343;BME280;3204;42.698;23.298;2024-03-23T03:26:38;94953.47;;;5.90;63.70
6343;BME280;3204;42.698;23.298;2024-03-23T03:29:04;94948.94;;;5.81;64.04
6343;BME280;3204;42.698;23.298;2024-03-23T03:31:29;94949.97;;;5.90;63.92
6343;BME280;3204;42.698;23.298;2024-03-23T03:33:55;94947.88;;;5.82;64.02
6343;BME280;3204;42.698;23.298;2024-03-23T03:36:20;94956.44;;;5.89;63.91
6343;BME280;3204;42.698;23.298;2024-03-23T03:38:46;94953.19;;;5.92;63.59
6343;BME280;3204;42.698;23.298;2024-03-23T03:41:11;94947.53;;;5.93;63.92
6343;BME280;3204;42.698;23.298;2024-03-23T03:43:37;94954.78;;;5.93;63.29
6343;BME280;3204;42.698;23.298;2024-03-23T03:46:03;94948.81;;;6.01;63.72
6343;BME280;3204;42.698;23.298;2024-03-23T03:48:29;94950.00;;;5.85;64.02
6343;BME280;3204;42.698;23.298;2024-03-23T03:50:54;94958.06;;;5.85;63.74
6343;BME280;3204;42.698;23.298;2024-03-23T03:53:20;94963.00;;;5.68;64.51
6343;BME280;3204;42.698;23.298;2024-03-23T03:55:46;94960.03;;;5.64;64.52
6343;BME280;3204;42.698;23.298;2024-03-23T03:58:11;94952.22;;;5.73;64.36
6343;BME280;3204;42.698;23.298;2024-03-23T04:00:37;94947.13;;;5.66;64.36
6343;BME280;3204;42.698;23.298;2024-03-23T04:03:02;94954.13;;;5.67;64.55
6343;BME280;3204;42.698;23.298;2024-03-23T04:05:28;94956.34;;;5.55;64.38
6343;BME280;3204;42.698;23.298;2024-03-23T04:07:53;94956.38;;;5.50;64.84
6343;BME280;3204;42.698;23.298;2024-03-23T04:10:19;94956.94;;;5.42;64.99
6343;BME280;3204;42.698;23.298;2024-03-23T04:12:45;94960.91;;;5.55;65.34
6343;BME280;3204;42.698;23.298;2024-03-23T04:15:11;94965.78;;;5.53;64.93
6343;BME280;3204;42.698;23.298;2024-03-23T04:17:37;94956.06;;;5.57;64.87
6343;BME280;3204;42.698;23.298;2024-03-23T04:20:03;94959.81;;;5.56;65.12
6343;BME280;3204;42.698;23.298;2024-03-23T04:22:37;94963.66;;;5.45;65.15
6343;BME280;3204;42.698;23.298;2024-03-23T04:25:02;94960.44;;;5.38;65.52
6343;BME280;3204;42.698;23.298;2024-03-23T04:27:35;94960.44;;;5.38;65.95
6343;BME280;3204;42.698;23.298;2024-03-23T04:30:01;94961.75;;;5.45;65.83
6343;BME280;3204;42.698;23.298;2024-03-23T04:32:28;94959.88;;;5.46;65.64
6343;BME280;3204;42.698;23.298;2024-03-23T04:34:54;94955.59;;;5.45;65.75
6343;BME280;3204;42.698;23.298;2024-03-23T04:37:20;94961.00;;;5.40;65.73
6343;BME280;3204;42.698;23.298;2024-03-23T04:39:46;94967.47;;;5.34;65.81
6343;BME280;3204;42.698;23.298;2024-03-23T04:42:14;94966.94;;;5.32;66.16
6343;BME280;3204;42.698;23.298;2024-03-23T04:44:40;94968.81;;;5.36;66.31
6343;BME280;3204;42.698;23.298;2024-03-23T04:47:05;94974.97;;;5.37;65.76
6343;BME280;3204;42.698;23.298;2024-03-23T04:49:31;94980.34;;;5.37;65.72
6343;BME280;3204;42.698;23.298;2024-03-23T04:51:57;94969.09;;;5.30;66.51
6343;BME280;3204;42.698;23.298;2024-03-23T04:54:22;94976.09;;;5.26;66.44
6343;BME280;3204;42.698;23.298;2024-03-23T04:56:47;94982.81;;;5.33;66.13
6343;BME280;3204;42.698;23.298;2024-03-23T04:59:13;94981.91;;;5.48;66.02
6343;BME280;3204;42.698;23.298;2024-03-23T05:01:38;94980.34;;;5.37;66.62
6343;BME280;3204;42.698;23.298;2024-03-23T05:04:07;94972.50;;;5.55;65.97
6343;BME280;3204;42.698;23.298;2024-03-23T05:06:32;94971.72;;;5.45;66.40
6343;BME280;3204;42.698;23.298;2024-03-23T05:08:58;94969.56;;;5.42;66.27
6343;BME280;3204;42.698;23.298;2024-03-23T05:11:23;94970.09;;;5.49;66.27
6343;BME280;3204;42.698;23.298;2024-03-23T05:13:48;94976.22;;;5.59;65.80
6343;BME280;3204;42.698;23.298;2024-03-23T05:16:14;94970.25;;;5.67;65.87
6343;BME280;3204;42.698;23.298;2024-03-23T05:18:39;94978.34;;;5.62;65.78
6343;BME280;3204;42.698;23.298;2024-03-23T05:21:04;94971.91;;;5.58;65.76
6343;BME280;3204;42.698;23.298;2024-03-23T05:23:30;94965.69;;;5.68;65.46
6343;BME280;3204;42.698;23.298;2024-03-23T05:25:55;94968.69;;;5.61;64.97
6343;BME280;3204;42.698;23.298;2024-03-23T05:28:22;94966.47;;;5.68;63.91
6343;BME280;3204;42.698;23.298;2024-03-23T05:30:52;94967.22;;;5.84;63.35
6343;BME280;3204;42.698;23.298;2024-03-23T05:33:19;94966.44;;;5.73;64.08
6343;BME280;3204;42.698;23.298;2024-03-23T05:35:44;94974.31;;;5.65;64.45
6343;BME280;3204;42.698;23.298;2024-03-23T05:38:10;94972.06;;;5.87;64.00
6343;BME280;3204;42.698;23.298;2024-03-23T05:40:35;94974.94;;;6.00;62.99
6343;BME280;3204;42.698;23.298;2024-03-23T05:43:03;94967.94;;;5.99;62.84
6343;BME280;3204;42.698;23.298;2024-03-23T05:45:29;94975.44;;;6.07;62.46
6343;BME280;3204;42.698;23.298;2024-03-23T05:47:54;94977.03;;;6.08;62.63
6343;BME280;3204;42.698;23.298;2024-03-23T05:50:22;94970.47;;;6.19;61.53
6343;BME280;3204;42.698;23.298;2024-03-23T05:52:47;94966.75;;;6.15;62.06
6343;BME280;3204;42.698;23.298;2024-03-23T05:55:13;94972.13;;;6.15;62.45
6343;BME280;3204;42.698;23.298;2024-03-23T05:57:38;94966.69;;;6.20;62.10
6343;BME280;3204;42.698;23.298;2024-03-23T06:00:05;94976.88;;;6.28;62.27
6343;BME280;3204;42.698;23.298;2024-03-23T06:02:35;94967.75;;;6.58;60.67
6343;BME280;3204;42.698;23.298;2024-03-23T06:05:01;94968.22;;;6.65;60.91
6343;BME280;3204;42.698;23.298;2024-03-23T06:07:27;94969.03;;;6.89;59.85
6343;BME280;3204;42.698;23.298;2024-03-23T06:09:53;94960.19;;;7.12;59.47
6343;BME280;3204;42.698;23.298;2024-03-23T06:12:18;94960.28;;;7.49;58.02
6343;BME280;3204;42.698;23.298;2024-03-23T06:14:43;94965.88;;;7.76;57.32
6343;BME280;3204;42.698;23.298;2024-03-23T06:17:09;94966.09;;;7.98;56.92
6343;BME280;3204;42.698;23.298;2024-03-23T06:19:34;94964.38;;;8.25;55.86
6343;BME280;3204;42.698;23.298;2024-03-23T06:22:00;94971.00;;;8.65;55.32
6343;BME280;3204;42.698;23.298;2024-03-23T06:24:25;94967.66;;;8.86;53.13
6343;BME280;3204;42.698;23.298;2024-03-23T06:26:50;94961.75;;;8.98;53.45
6343;BME280;3204;42.698;23.298;2024-03-23T06:29:16;94969.78;;;9.03;53.89
6343;BME280;3204;42.698;23.298;2024-03-23T06:31:41;94971.66;;;9.34;51.89
6343;BME280;3204;42.698;23.298;2024-03-23T06:34:07;94973.22;;;9.22;52.75
6343;BME280;3204;42.698;23.298;2024-03-23T06:36:32;94971.72;;;9.56;51.32
6343;BME280;3204;42.698;23.298;2024-03-23T06:38:58;94964.59;;;9.60;51.42
6343;BME280;3204;42.698;23.298;2024-03-23T06:41:24;94963.91;;;9.55;51.61
6343;BME280;3204;42.698;23.298;2024-03-23T06:43:49;94968.22;;;9.42;51.61
6343;BME280;3204;42.698;23.298;2024-03-23T06:46:15;94962.72;;;10.23;50.97
6343;BME280;3204;42.698;23.298;2024-03-23T06:48:40;94963.63;;;11.07;49.02
6343;BME280;3204;42.698;23.298;2024-03-23T06:51:05;94963.31;;;11.39;48.04
6343;BME280;3204;42.698;23.298;2024-03-23T06:53:31;94967.00;;;11.82;46.67
6343;BME280;3204;42.698;23.298;2024-03-23T06:55:57;94964.34;;;12.16;46.10
6343;BME280;3204;42.698;23.298;2024-03-23T06:58:23;94970.47;;;12.64;45.13
6343;BME280;3204;42.698;23.298;2024-03-23T07:00:49;94959.72;;;12.59;44.32
6343;BME280;3204;42.698;23.298;2024-03-23T07:03:16;94959.25;;;12.48;44.04
6343;BME280;3204;42.698;23.298;2024-03-23T07:05:41;94964.81;;;12.01;44.89
6343;BME280;3204;42.698;23.298;2024-03-23T07:08:07;94955.38;;;11.51;45.80
6343;BME280;3204;42.698;23.298;2024-03-23T07:10:33;94960.56;;;11.61;45.74
6343;BME280;3204;42.698;23.298;2024-03-23T07:12:58;94952.63;;;11.90;45.59
6343;BME280;3204;42.698;23.298;2024-03-23T07:15:24;94953.03;;;12.65;44.33
6343;BME280;3204;42.698;23.298;2024-03-23T07:17:49;94948.44;;;13.20;42.91
6343;BME280;3204;42.698;23.298;2024-03-23T07:20:15;94951.97;;;13.66;41.80
6343;BME280;3204;42.698;23.298;2024-03-23T07:22:41;94949.16;;;13.83;40.96
6343;BME280;3204;42.698;23.298;2024-03-23T07:25:06;94946.53;;;13.66;41.47
6343;BME280;3204;42.698;23.298;2024-03-23T07:27:32;94945.47;;;13.88;40.98
6343;BME280;3204;42.698;23.298;2024-03-23T07:29:59;94936.91;;;13.98;41.31
6343;BME280;3204;42.698;23.298;2024-03-23T07:32:24;94942.16;;;14.32;41.24
6343;BME280;3204;42.698;23.298;2024-03-23T07:34:52;94949.34;;;14.57;39.85
6343;BME280;3204;42.698;23.298;2024-03-23T07:37:17;94942.72;;;13.88;40.83
6343;BME280;3204;42.698;23.298;2024-03-23T07:39:42;94941.13;;;14.16;40.56
6343;BME280;3204;42.698;23.298;2024-03-23T07:42:08;94940.75;;;14.26;40.60
6343;BME280;3204;42.698;23.298;2024-03-23T07:44:33;94937.78;;;14.10;40.58
6343;BME280;3204;42.698;23.298;2024-03-23T07:47:02;94930.31;;;14.28;40.38
6343;BME280;3204;42.698;23.298;2024-03-23T07:49:27;94937.34;;;14.00;40.71
6343;BME280;3204;42.698;23.298;2024-03-23T07:51:53;94933.22;;;14.23;40.46
6343;BME280;3204;42.698;23.298;2024-03-23T07:54:18;94929.53;;;14.27;40.36
6343;BME280;3204;42.698;23.298;2024-03-23T07:56:44;94935.22;;;14.55;40.71
6343;BME280;3204;42.698;23.298;2024-03-23T07:59:09;94934.16;;;14.27;40.60
6343;BME280;3204;42.698;23.298;2024-03-23T08:01:35;94937.03;;;14.01;41.14
6343;BME280;3204;42.698;23.298;2024-03-23T08:04:00;94919.66;;;14.06;41.68
6343;BME280;3204;42.698;23.298;2024-03-23T08:06:26;94930.50;;;14.43;40.76
6343;BME280;3204;42.698;23.298;2024-03-23T08:08:54;94924.88;;;14.81;39.89
6343;BME280;3204;42.698;23.298;2024-03-23T08:11:29;94914.44;;;15.27;39.28
6343;BME280;3204;42.698;23.298;2024-03-23T08:13:55;94916.00;;;15.85;38.38
6343;BME280;3204;42.698;23.298;2024-03-23T08:16:21;94921.69;;;16.16;37.70
6343;BME280;3204;42.698;23.298;2024-03-23T08:18:47;94913.59;;;15.83;37.95
6343;BME280;3204;42.698;23.298;2024-03-23T08:21:12;94911.78;;;15.51;39.02
6343;BME280;3204;42.698;23.298;2024-03-23T08:23:38;94917.50;;;15.26;38.84
6343;BME280;3204;42.698;23.298;2024-03-23T08:26:07;94915.53;;;14.49;39.76
6343;BME280;3204;42.698;23.298;2024-03-23T08:28:34;94909.00;;;14.62;40.63
6343;BME280;3204;42.698;23.298;2024-03-23T08:31:18;94908.75;;;14.06;41.37
6343;BME280;3204;42.698;23.298;2024-03-23T08:33:43;94907.63;;;14.36;40.92
6343;BME280;3204;42.698;23.298;2024-03-23T08:36:10;94906.03;;;14.88;39.96
6343;BME280;3204;42.698;23.298;2024-03-23T08:38:37;94902.44;;;15.08;39.84
6343;BME280;3204;42.698;23.298;2024-03-23T08:43:30;94887.66;;;16.41;38.04
6343;BME280;3204;42.698;23.298;2024-03-23T08:46:12;94887.41;;;16.58;37.65
6343;BME280;3204;42.698;23.298;2024-03-23T08:48:39;94885.19;;;16.00;38.13
6343;BME280;3204;42.698;23.298;2024-03-23T08:51:06;94877.88;;;15.32;38.96
6343;BME280;3204;42.698;23.298;2024-03-23T08:53:34;94877.25;;;15.59;39.22
6343;BME280;3204;42.698;23.298;2024-03-23T08:56:00;94875.69;;;15.58;38.53
6343;BME280;3204;42.698;23.298;2024-03-23T08:58:27;94875.53;;;16.54;37.33
6343;BME280;3204;42.698;23.298;2024-03-23T09:00:53;94869.88;;;16.23;37.57
6343;BME280;3204;42.698;23.298;2024-03-23T09:03:25;94868.03;;;16.39;37.92
6343;BME280;3204;42.698;23.298;2024-03-23T09:05:51;94862.91;;;16.92;37.16
6343;BME280;3204;42.698;23.298;2024-03-23T09:08:17;94865.31;;;17.84;35.66
6343;BME280;3204;42.698;23.298;2024-03-23T09:10:43;94865.13;;;18.27;34.69
6343;BME280;3204;42.698;23.298;2024-03-23T09:13:09;94849.69;;;18.76;34.18
6343;BME280;3204;42.698;23.298;2024-03-23T09:15:35;94858.06;;;19.21;33.62
6343;BME280;3204;42.698;23.298;2024-03-23T09:18:01;94851.09;;;18.66;33.87
6343;BME280;3204;42.698;23.298;2024-03-23T09:20:27;94845.59;;;18.66;34.08
6343;BME280;3204;42.698;23.298;2024-03-23T09:22:53;94834.09;;;17.92;34.58
6343;BME280;3204;42.698;23.298;2024-03-23T09:25:18;94829.91;;;17.63;35.63
6343;BME280;3204;42.698;23.298;2024-03-23T09:27:46;94832.56;;;18.44;34.39
6343;BME280;3204;42.698;23.298;2024-03-23T09:30:12;94826.31;;;19.23;33.38
6343;BME280;3204;42.698;23.298;2024-03-23T09:32:38;94829.56;;;20.03;31.97
6343;BME280;3204;42.698;23.298;2024-03-23T09:35:04;94820.72;;;20.13;31.92
6343;BME280;3204;42.698;23.298;2024-03-23T09:37:29;94822.78;;;19.97;31.85
6343;BME280;3204;42.698;23.298;2024-03-23T09:39:55;94818.59;;;19.55;32.64
6343;BME280;3204;42.698;23.298;2024-03-23T09:42:20;94803.84;;;20.48;31.35
6343;BME280;3204;42.698;23.298;2024-03-23T09:44:46;94811.53;;;21.31;30.06
6343;BME280;3204;42.698;23.298;2024-03-23T09:47:12;94804.22;;;21.49;30.08
6343;BME280;3204;42.698;23.298;2024-03-23T09:49:37;94802.91;;;21.36;30.02
6343;BME280;3204;42.698;23.298;2024-03-23T09:52:03;94794.28;;;21.84;29.43
6343;BME280;3204;42.698;23.298;2024-03-23T09:54:29;94792.97;;;21.28;29.87
6343;BME280;3204;42.698;23.298;2024-03-23T09:56:55;94777.44;;;20.43;31.00
6343;BME280;3204;42.698;23.298;2024-03-23T09:59:20;94794.25;;;21.01;30.72
6343;BME280;3204;42.698;23.298;2024-03-23T10:01:46;94783.63;;;21.83;29.20
6343;BME280;3204;42.698;23.298;2024-03-23T10:04:12;94781.16;;;21.27;29.74
6343;BME280;3204;42.698;23.298;2024-03-23T10:06:38;94771.78;;;20.66;30.10
6343;BME280;3204;42.698;23.298;2024-03-23T10:09:16;94766.66;;;20.05;30.60
6343;BME280;3204;42.698;23.298;2024-03-23T10:11:43;94759.78;;;18.95;31.70
6343;BME280;3204;42.698;23.298;2024-03-23T10:14:29;94758.47;;;18.89;32.10
6343;BME280;3204;42.698;23.298;2024-03-23T10:17:17;94757.75;;;19.60;31.61
6343;BME280;3204;42.698;23.298;2024-03-23T10:19:46;94750.53;;;19.78;31.35
6343;BME280;3204;42.698;23.298;2024-03-23T10:22:14;94746.25;;;20.72;30.25
6343;BME280;3204;42.698;23.298;2024-03-23T10:24:41;94743.38;;;20.62;30.32
6343;BME280;3204;42.698;23.298;2024-03-23T10:27:07;94741.28;;;20.48;29.14
6343;BME280;3204;42.698;23.298;2024-03-23T10:29:33;94741.94;;;20.09;29.45
6343;BME280;3204;42.698;23.298;2024-03-23T10:32:08;94728.66;;;19.88;31.14
6343;BME280;3204;42.698;23.298;2024-03-23T10:34:35;94728.28;;;19.90;30.62
6343;BME280;3204;42.698;23.298;2024-03-23T10:37:02;94717.78;;;19.99;31.22
6343;BME280;3204;42.698;23.298;2024-03-23T10:39:49;94722.28;;;20.76;29.92
6343;BME280;3204;42.698;23.298;2024-03-23T10:42:14;94714.66;;;21.97;29.10
6343;BME280;3204;42.698;23.298;2024-03-23T10:44:41;94710.88;;;21.14;28.93
6343;BME280;3204;42.698;23.298;2024-03-23T10:47:06;94697.00;;;20.71;29.76
6343;BME280;3204;42.698;23.298;2024-03-23T10:49:33;94696.34;;;20.84;30.20
6343;BME280;3204;42.698;23.298;2024-03-23T10:52:03;94687.09;;;20.30;30.82
6343;BME280;3204;42.698;23.298;2024-03-23T10:54:32;94679.41;;;19.54;31.97
6343;BME280;3204;42.698;23.298;2024-03-23T10:57:17;94673.22;;;19.60;31.13
6343;BME280;3204;42.698;23.298;2024-03-23T10:59:44;94658.53;;;19.49;31.98
6343;BME280;3204;42.698;23.298;2024-03-23T11:02:21;94654.88;;;19.42;31.81
6343;BME280;3204;42.698;23.298;2024-03-23T11:04:47;94652.84;;;19.39;32.54
6343;BME280;3204;42.698;23.298;2024-03-23T11:07:32;94644.44;;;20.13;31.09
6343;BME280;3204;42.698;23.298;2024-03-23T11:09:59;94640.38;;;20.07;30.35
6343;BME280;3204;42.698;23.298;2024-03-23T11:15:01;94631.03;;;20.48;29.72
6343;BME280;3204;42.698;23.298;2024-03-23T11:17:28;94633.31;;;20.39;29.87
6343;BME280;3204;42.698;23.298;2024-03-23T11:19:58;94618.25;;;19.97;29.75
6343;BME280;3204;42.698;23.298;2024-03-23T11:22:47;94615.00;;;20.57;29.67
6343;BME280;3204;42.698;23.298;2024-03-23T11:25:13;94612.97;;;21.55;28.48
6343;BME280;3204;42.698;23.298;2024-03-23T11:27:39;94610.66;;;22.50;27.85
6343;BME280;3204;42.698;23.298;2024-03-23T11:30:23;94607.53;;;23.21;26.76
6343;BME280;3204;42.698;23.298;2024-03-23T11:32:59;94617.34;;;23.78;25.89
6343;BME280;3204;42.698;23.298;2024-03-23T11:38:14;94601.41;;;24.10;25.41
6343;BME280;3204;42.698;23.298;2024-03-23T11:40:42;94594.44;;;23.53;25.49
6343;BME280;3204;42.698;23.298;2024-03-23T11:43:09;94580.69;;;23.18;26.58
6343;BME280;3204;42.698;23.298;2024-03-23T11:45:37;94575.03;;;22.31;27.32
6343;BME280;3204;42.698;23.298;2024-03-23T11:48:15;94570.28;;;22.17;27.15
6343;BME280;3204;42.698;23.298;2024-03-23T11:50:42;94575.81;;;22.17;27.01
6343;BME280;3204;42.698;23.298;2024-03-23T11:53:22;94565.19;;;22.30;26.82
6343;BME280;3204;42.698;23.298;2024-03-23T11:55:49;94560.81;;;22.25;27.36
6343;BME280;3204;42.698;23.298;2024-03-23T11:58:16;94544.09;;;21.76;27.03
6343;BME280;3204;42.698;23.298;2024-03-23T12:00:56;94539.19;;;21.42;27.30
6343;BME280;3204;42.698;23.298;2024-03-23T12:03:23;94538.97;;;21.75;27.13
6343;BME280;3204;42.698;23.298;2024-03-23T12:05:55;94532.06;;;22.47;26.58
6343;BME280;3204;42.698;23.298;2024-03-23T12:08:22;94530.44;;;23.27;25.71
6343;BME280;3204;42.698;23.298;2024-03-23T12:10:52;94528.75;;;23.57;25.57
6343;BME280;3204;42.698;23.298;2024-03-23T12:13:21;94518.31;;;23.96;24.79
6343;BME280;3204;42.698;23.298;2024-03-23T12:15:49;94520.38;;;23.82;24.60
6343;BME280;3204;42.698;23.298;2024-03-23T12:18:16;94517.34;;;23.38;25.17
6343;BME280;3204;42.698;23.298;2024-03-23T12:20:41;94513.84;;;23.02;24.85
6343;BME280;3204;42.698;23.298;2024-03-23T12:23:10;94509.84;;;23.45;24.34
6343;BME280;3204;42.698;23.298;2024-03-23T12:25:37;94501.69;;;24.03;23.52
6343;BME280;3204;42.698;23.298;2024-03-23T12:28:03;94516.97;;;24.25;24.24
6343;BME280;3204;42.698;23.298;2024-03-23T12:30:32;94506.28;;;24.27;24.26
6343;BME280;3204;42.698;23.298;2024-03-23T12:32:57;94498.94;;;23.96;24.41
6343;BME280;3204;42.698;23.298;2024-03-23T12:35:23;94496.78;;;24.25;23.29
6343;BME280;3204;42.698;23.298;2024-03-23T12:37:48;94493.81;;;24.49;23.10
6343;BME280;3204;42.698;23.298;2024-03-23T12:40:14;94483.78;;;24.11;23.03
6343;BME280;3204;42.698;23.298;2024-03-23T12:42:39;94483.53;;;23.88;22.24
6343;BME280;3204;42.698;23.298;2024-03-23T12:45:05;94481.81;;;23.12;21.75
6343;BME280;3204;42.698;23.298;2024-03-23T12:47:30;94480.97;;;23.43;22.02
6343;BME280;3204;42.698;23.298;2024-03-23T12:49:56;94479.16;;;23.94;21.64
6343;BME280;3204;42.698;23.298;2024-03-23T12:52:21;94467.41;;;24.34;20.74
6343;BME280;3204;42.698;23.298;2024-03-23T12:54:49;94474.00;;;24.51;21.01
6343;BME280;3204;42.698;23.298;2024-03-23T12:57:14;94465.06;;;24.80;20.38
6343;BME280;3204;42.698;23.298;2024-03-23T12:59:40;94465.97;;;25.11;19.46
6343;BME280;3204;42.698;23.298;2024-03-23T13:02:05;94461.66;;;25.06;19.68
6343;BME280;3204;42.698;23.298;2024-03-23T13:04:32;94459.00;;;25.33;19.82
6343;BME280;3204;42.698;23.298;2024-03-23T13:06:57;94455.47;;;25.62;19.25
6343;BME280;3204;42.698;23.298;2024-03-23T13:09:23;94449.78;;;25.73;19.11
6343;BME280;3204;42.698;23.298;2024-03-23T13:11:48;94440.16;;;25.77;19.45
6343;BME280;3204;42.698;23.298;2024-03-23T13:14:13;94443.69;;;25.81;19.30
6343;BME280;3204;42.698;23.298;2024-03-23T13:16:41;94440.41;;;25.93;19.04
6343;BME280;3204;42.698;23.298;2024-03-23T13:19:07;94436.03;;;25.92;18.84
6343;BME280;3204;42.698;23.298;2024-03-23T13:21:32;94429.97;;;25.71;18.68
6343;BME280;3204;42.698;23.298;2024-03-23T13:23:57;94429.22;;;25.97;18.79
6343;BME280;3204;42.698;23.298;2024-03-23T13:26:23;94428.59;;;26.12;18.83
6343;BME280;3204;42.698;23.298;2024-03-23T13:28:48;94427.72;;;26.19;19.31
6343;BME280;3204;42.698;23.298;2024-03-23T13:31:13;94420.66;;;26.11;18.74
6343;BME280;3204;42.698;23.298;2024-03-23T13:33:39;94419.72;;;25.64;18.49
6343;BME280;3204;42.698;23.298;2024-03-23T13:36:05;94411.75;;;25.66;18.83
6343;BME280;3204;42.698;23.298;2024-03-23T13:38:30;94417.41;;;24.92;19.09
6343;BME280;3204;42.698;23.298;2024-03-23T13:40:57;94414.91;;;24.64;19.73
6343;BME280;3204;42.698;23.298;2024-03-23T13:43:24;94411.44;;;24.90;19.58
6343;BME280;3204;42.698;23.298;2024-03-23T13:45:53;94413.28;;;25.04;20.05
6343;BME280;3204;42.698;23.298;2024-03-23T13:48:20;94396.47;;;25.18;19.84
6343;BME280;3204;42.698;23.298;2024-03-23T13:50:46;94394.69;;;25.38;19.64
6343;BME280;3204;42.698;23.298;2024-03-23T13:53:15;94392.44;;;25.22;19.93
6343;BME280;3204;42.698;23.298;2024-03-23T13:55:47;94390.50;;;24.82;20.43
6343;BME280;3204;42.698;23.298;2024-03-23T13:58:15;94387.16;;;24.61;20.76
6343;BME280;3204;42.698;23.298;2024-03-23T14:00:41;94389.75;;;24.34;20.95
6343;BME280;3204;42.698;23.298;2024-03-23T14:03:10;94384.72;;;24.22;20.73
6343;BME280;3204;42.698;23.298;2024-03-23T14:05:36;94383.16;;;24.18;20.87
6343;BME280;3204;42.698;23.298;2024-03-23T14:08:05;94383.69;;;24.50;20.56
6343;BME280;3204;42.698;23.298;2024-03-23T14:10:30;94380.00;;;24.63;20.87
6343;BME280;3204;42.698;23.298;2024-03-23T14:12:55;94375.16;;;24.74;20.50
6343;BME280;3204;42.698;23.298;2024-03-23T14:15:21;94374.34;;;24.74;20.53